Time;durP1;ratioP1;P1;durP2;ratioP2;P2;SDS_P1;SDS_P2;PMS_P1;PMS_P2;Temp;Humidity;BMP_temperature;BMP_pressure;BME280_temperature;BME280_humidity;BME280_pressure;Samples;Min_cycle;Max_cycle;Signal;HPM_P1;HPM_P2
2023/09/11 00:00:08;;;;;;;2.33;2.15;;;;;;;;;;6105791;23;19998;-78
2023/09/11 00:02:34;;;;;;;2.38;2.17;;;;;;;;;;6105314;23;20006;-78
2023/09/11 00:05:00;;;;;;;2.28;2.08;;;;;;;;;;6105291;23;20061;-78
2023/09/11 00:07:26;;;;;;;2.35;2.15;;;;;;;;;;6105204;23;20002;-79
2023/09/11 00:09:52;;;;;;;2.63;2.42;;;;;;;;;;6105199;23;20057;-79
2023/09/11 00:12:18;;;;;;;2.40;2.20;;;;;;;;;;6105183;23;20085;-72
2023/09/11 00:14:44;;;;;;;2.45;2.25;;;;;;;;;;6105230;23;19999;-72
2023/09/11 00:17:10;;;;;;;2.47;2.25;;;;;;;;;;6105099;23;20007;-72
2023/09/11 00:19:36;;;;;;;2.33;2.13;;;;;;;;;;6105062;23;20050;-72
2023/09/11 00:22:02;;;;;;;2.47;2.28;;;;;;;;;;6104977;23;20002;-72
2023/09/11 00:24:28;;;;;;;2.55;2.35;;;;;;;;;;6105123;23;19999;-72
2023/09/11 00:26:55;;;;;;;1.92;1.83;;;;;;;;;;6104953;23;19995;-72
2023/09/11 00:29:21;;;;;;;2.17;2.03;;;;;;;;;;6105741;23;20307;-78
2023/09/11 00:31:47;;;;;;;2.70;2.40;;;;;;;;;;6105008;23;20017;-78
2023/09/11 00:34:13;;;;;;;2.55;2.35;;;;;;;;;;6104965;23;20363;-78
2023/09/11 00:36:39;;;;;;;2.30;2.10;;;;;;;;;;6105280;23;20014;-78
2023/09/11 00:39:05;;;;;;;2.42;2.22;;;;;;;;;;6105221;23;19998;-73
2023/09/11 00:41:31;;;;;;;2.85;2.53;;;;;;;;;;6105187;23;20022;-78
2023/09/11 00:43:57;;;;;;;2.67;2.47;;;;;;;;;;6104877;23;20383;-78
2023/09/11 00:46:23;;;;;;;2.67;2.13;;;;;;;;;;6105088;23;20074;-78
2023/09/11 00:48:53;;;;;;;2.15;2.05;;;;;;;;;;6104998;23;20050;-78
2023/09/11 00:51:20;;;;;;;2.50;2.30;;;;;;;;;;6104910;23;20046;-79
2023/09/11 00:53:46;;;;;;;2.50;2.30;;;;;;;;;;6105196;23;20082;-78
2023/09/11 00:56:12;;;;;;;2.80;2.60;;;;;;;;;;6094106;23;20042;-73
2023/09/11 00:58:38;;;;;;;2.08;1.98;;;;;;;;;;6104831;23;20066;-72
2023/09/11 01:01:05;;;;;;;2.47;2.22;;;31.10;68.00;;;;;;6104847;23;20319;-72
2023/09/11 01:03:31;;;;;;;2.25;2.08;;;;;;;;;;6105214;23;20501;-72
2023/09/11 01:05:57;;;;;;;1.95;1.85;;;;;;;;;;6106768;23;20003;-72
2023/09/11 01:08:23;;;;;;;2.33;2.13;;;;;;;;;;6106911;23;20073;-72
2023/09/11 01:10:49;;;;;;;2.28;2.10;;;;;;;;;;6106758;23;20001;-72
2023/09/11 01:13:15;;;;;;;2.13;2.03;;;;;;;;;;6106559;23;19994;-72
2023/09/11 01:15:50;;;;;;;2.47;2.22;;;31.10;67.90;;;;;;6106748;23;20010;-72
2023/09/11 01:18:39;;;;;;;2.13;1.95;;;31.00;62.70;;;;;;6096899;23;20081;-72
2023/09/11 01:21:22;;;;;;;2.50;2.30;;;31.00;62.50;;;;;;6090209;23;20003;-72
2023/09/11 01:24:18;;;;;;;2.08;1.98;;;31.00;62.50;;;;;;6106783;23;20101;-72
2023/09/11 01:26:59;;;;;;;2.45;1.90;;;30.90;67.90;;;;;;6096101;23;20010;-72
2023/09/11 01:29:26;;;;;;;2.97;2.67;;;31.00;67.90;;;;;;6106564;23;20303;-72
2023/09/11 01:31:54;;;;;;;2.10;2.00;;;31.00;68.40;;;;;;6106519;23;20149;-72
2023/09/11 01:34:20;;;;;;;2.85;2.55;;;;;;;;;;6106371;23;20424;-72
2023/09/11 01:36:46;;;;;;;2.38;2.17;;;;;;;;;;6106350;23;20532;-72
2023/09/11 01:39:13;;;;;;;2.38;2.17;;;30.90;67.60;;;;;;6106555;23;20005;-71
2023/09/11 01:41:42;;;;;;;2.22;2.03;;;30.90;68.50;;;;;;6106557;23;20065;-72
2023/09/11 01:44:26;;;;;;;2.28;2.08;;;30.90;63.00;;;;;;6106391;23;19995;-72
2023/09/11 01:46:53;;;;;;;2.05;1.95;;;33.10;70.00;;;;;;6106532;23;20037;-72
2023/09/11 01:49:21;;;;;;;2.67;2.10;;;30.80;68.70;;;;;;6106379;23;20002;-72
2023/09/11 01:51:49;;;;;;;2.08;1.90;;;;;;;;;;6094901;23;20457;-72
2023/09/11 01:54:16;;;;;;;2.28;2.08;;;;;;;;;;6106908;23;20006;-78
2023/09/11 01:56:42;;;;;;;2.65;1.92;;;;;;;;;;6095306;23;20023;-77
2023/09/11 01:59:08;;;;;;;4.20;2.20;;;;;;;;;;6096914;23;20284;-78
2023/09/11 02:01:34;;;;;;;2.33;2.13;;;;;;;;;;6071005;23;20017;-77
2023/09/11 02:04:00;;;;;;;2.63;2.42;;;;;;;;;;6106327;23;20005;-77
2023/09/11 02:06:26;;;;;;;2.50;2.30;;;;;;;;;;6106242;23;20011;-71
2023/09/11 02:08:54;;;;;;;2.60;2.40;;;30.70;68.90;;;;;;6106287;23;20130;-71
2023/09/11 02:11:22;;;;;;;2.47;2.28;;;;;;;;;;6106101;23;20013;-71
2023/09/11 02:13:48;;;;;;;2.65;2.28;;;;;;;;;;6106235;23;20253;-71
2023/09/11 02:16:14;;;;;;;2.40;2.20;;;;;;;;;;6096287;23;20069;-71
2023/09/11 02:18:40;;;;;;;3.47;2.40;;;;;;;;;;6106098;23;20003;-71
2023/09/11 02:21:06;;;;;;;2.67;2.13;;;;;;;;;;6106125;23;20350;-71
2023/09/11 02:23:32;;;;;;;2.70;2.40;;;;;;;;;;6105989;23;20304;-77
2023/09/11 02:25:59;;;;;;;2.00;1.90;;;;;;;;;;6095020;23;20085;-77
2023/09/11 02:28:26;;;;;;;2.38;2.17;;;;;;;;;;6106054;23;20002;-77
2023/09/11 02:30:53;;;;;;;2.35;2.15;;;;;;;;;;6104435;23;20028;-77
2023/09/11 02:33:19;;;;;;;2.20;2.00;;;;;;;;;;6106089;23;20003;-78
2023/09/11 02:35:45;;;;;;;2.75;2.10;;;;;;;;;;6105584;23;20007;-78
2023/09/11 02:38:12;;;;;;;2.67;2.45;;;;;;;;;;6106027;23;20426;-78
2023/09/11 02:40:38;;;;;;;3.40;2.60;;;;;;;;;;6106602;23;20002;-78
2023/09/11 02:43:04;;;;;;;2.08;1.90;;;;;;;;;;6105966;23;19994;-78
2023/09/11 02:45:30;;;;;;;2.50;2.30;;;;;;;;;;6106001;23;20002;-78
2023/09/11 02:47:56;;;;;;;2.20;2.00;;;;;;;;;;6106005;23;20017;-78
2023/09/11 02:50:23;;;;;;;2.25;2.08;;;;;;;;;;6094655;23;20066;-78
2023/09/11 02:52:49;;;;;;;2.40;2.20;;;;;;;;;;6105942;23;20037;-78
2023/09/11 02:55:15;;;;;;;3.17;2.10;;;;;;;;;;6105876;23;20061;-78
2023/09/11 02:57:41;;;;;;;2.97;2.08;;;30.50;66.80;;;;;;6105684;23;19998;-78
2023/09/11 03:00:10;;;;;;;2.80;2.25;;;;;;;;;;6106006;23;19999;-78
2023/09/11 03:02:36;;;;;;;2.30;2.00;;;;;;;;;;6105640;23;19998;-78
2023/09/11 03:05:02;;;;;;;3.00;2.25;;;;;;;;;;6105729;23;20013;-77
2023/09/11 03:07:28;;;;;;;2.22;2.10;;;;;;;;;;6105615;23;20025;-77
2023/09/11 03:09:54;;;;;;;2.92;2.30;;;;;;;;;;6106295;23;20053;-78
2023/09/11 03:12:20;;;;;;;2.58;2.38;;;;;;;;;;6105659;23;20007;-78
2023/09/11 03:14:46;;;;;;;2.30;2.10;;;;;;;;;;6105603;23;20347;-78
2023/09/11 03:17:14;;;;;;;2.17;2.08;;;;;;;;;;6105567;23;20005;-78
2023/09/11 03:19:40;;;;;;;3.22;2.20;;;;;;;;;;6105661;23;19995;-78
2023/09/11 03:22:06;;;;;;;2.67;2.47;;;;;;;;;;6105665;23;20371;-78
2023/09/11 03:24:32;;;;;;;3.00;2.75;;;;;;;;;;6105620;23;20009;-78
2023/09/11 03:26:58;;;;;;;2.38;2.17;;;;;;;;;;6105551;23;20002;-78
2023/09/11 03:29:24;;;;;;;2.67;2.35;;;;;;;;;;6105580;23;20053;-78
2023/09/11 03:31:49;;;;;;;2.80;2.60;;;;;;;;;;6105293;23;20007;-78
2023/09/11 03:34:15;;;;;;;2.42;2.22;;;;;;;;;;6094189;23;20009;-78
2023/09/11 03:36:41;;;;;;;2.35;2.17;;;;;;;;;;6105050;23;20011;-78
2023/09/11 03:39:08;;;;;;;2.67;2.22;;;;;;;;;;6105998;23;19994;-72
2023/09/11 03:41:34;;;;;;;2.38;2.17;;;;;;;;;;6105424;23;20003;-72
2023/09/11 03:44:00;;;;;;;3.20;2.22;;;;;;;;;;6105426;23;19999;-72
2023/09/11 03:46:26;;;;;;;2.35;2.03;;;;;;;;;;6105378;23;20077;-72
2023/09/11 03:48:52;;;;;;;2.83;2.60;;;;;;;;;;6105345;23;20001;-77
2023/09/11 03:51:18;;;;;;;2.92;2.50;;;;;;;;;;6105407;23;20006;-77
2023/09/11 03:53:44;;;;;;;3.47;2.97;;;;;;;;;;6105354;23;20005;-78
2023/09/11 03:56:11;;;;;;;2.78;2.58;;;30.30;70.70;;;;;;6094125;23;20465;-77
2023/09/11 03:58:37;;;;;;;3.35;3.05;;;;;;;;;;6105272;23;20003;-77
2023/09/11 04:07:01;;;;;;;8.25;7.65;;;;;;;;;;6134971;23;20049;-77
2023/09/11 04:09:30;;;;;;;10.20;9.40;;;;;;;;;;6098819;23;20038;-77
2023/09/11 04:11:56;;;;;;;12.50;11.50;;;;;;;;;;6134721;23;20014;-77
2023/09/11 04:14:22;;;;;;;15.05;13.75;;;;;;;;;;6108905;23;20332;-77
2023/09/11 04:16:49;;;;;;;17.38;16.08;;;;;;;;;;6099097;23;20469;-77
2023/09/11 04:19:15;;;;;;;19.25;17.65;;;;;;;;;;6098718;23;20460;-77
2023/09/11 04:21:41;;;;;;;22.75;20.85;;;;;;;;;;6134462;23;20005;-77
2023/09/11 04:24:12;;;;;;;24.50;22.50;;;;;;;;;;6124786;23;20445;-77
2023/09/11 04:26:38;;;;;;;28.88;26.48;;;;;;;;;;6125189;23;20035;-78
2023/09/11 04:29:05;;;;;;;30.55;27.92;;;;;;;;;;6134469;23;19998;-78
2023/09/11 04:31:31;;;;;;;31.88;29.23;;;;;;;;;;6134271;23;20066;-78
2023/09/11 04:33:57;;;;;;;35.15;32.22;;;;;;;;;;6134551;23;20345;-78
2023/09/11 04:36:23;;;;;;;34.33;31.42;;;;;;;;;;6098975;23;20005;-72
2023/09/11 04:38:49;;;;;;;35.85;32.88;;;;;;;;;;6135691;23;20001;-72
2023/09/11 04:41:16;;;;;;;34.80;31.85;;;;;;;;;;6137553;23;20445;-72
2023/09/11 04:43:42;;;;;;;34.25;31.35;;;;;;;;;;6137450;23;20005;-71
2023/09/11 04:46:08;;;;;;;34.13;31.25;;;;;;;;;;6137686;23;20069;-72
2023/09/11 04:48:34;;;;;;;32.53;29.73;;;;;;;;;;6137893;23;20333;-77
2023/09/11 04:51:00;;;;;;;32.85;30.15;;;;;;;;;;6137712;23;19994;-78
2023/09/11 04:53:26;;;;;;;31.95;29.25;;;;;;;;;;6137635;23;20016;-77
2023/09/11 04:55:52;;;;;;;29.25;26.85;;;;;;;;;;6137729;23;19994;-77
2023/09/11 04:58:18;;;;;;;29.17;26.75;;;;;;;;;;6137514;23;20028;-77
2023/09/11 05:00:44;;;;;;;27.83;25.52;;;;;;;;;;6137539;23;19998;-77
2023/09/11 05:03:10;;;;;;;26.60;24.25;;;;;;;;;;6102250;23;20017;-77
2023/09/11 05:05:40;;;;;;;23.85;21.63;;;;;;;;;;6137564;23;19998;-77
2023/09/11 05:08:06;;;;;;;22.30;20.45;;;;;;;;;;6137712;23;20410;-78
2023/09/11 05:10:33;;;;;;;21.15;19.35;;;;;;;;;;6137703;23;19998;-78
2023/09/11 05:12:59;;;;;;;20.02;18.25;;;;;;;;;;6137559;23;20006;-77
2023/09/11 05:15:25;;;;;;;19.35;17.60;;;;;;;;;;6137527;23;20081;-72
2023/09/11 05:17:51;;;;;;;17.77;16.30;;;;;;;;;;6137223;23;20029;-72
2023/09/11 05:20:17;;;;;;;15.75;14.45;;;;;;;;;;6137481;23;20044;-73
2023/09/11 05:22:43;;;;;;;14.27;13.07;;;;;;;;;;6137327;23;20065;-73
2023/09/11 05:25:09;;;;;;;13.27;12.20;;;;;;;;;;6136885;23;20005;-71
2023/09/11 05:27:35;;;;;;;12.20;11.13;;;;;;;;;;6137187;23;20092;-72
2023/09/11 05:30:01;;;;;;;10.50;9.55;;;;;;;;;;6137072;23;20050;-71
2023/09/11 05:32:27;;;;;;;8.88;8.00;;;;;;;;;;6137705;23;20012;-71
2023/09/11 05:34:53;;;;;;;8.10;7.40;;;;;;;;;;6137247;23;20069;-72
2023/09/11 05:37:19;;;;;;;7.50;6.55;;;;;;;;;;6137292;23;20008;-72
2023/09/11 05:39:46;;;;;;;6.18;5.68;;;29.70;72.40;;;;;;6137273;23;19998;-71
2023/09/11 05:42:12;;;;;;;6.22;5.63;;;;;;;;;;6137344;23;20429;-71
2023/09/11 05:44:38;;;;;;;5.82;4.90;;;;;;;;;;6137354;23;19998;-71
2023/09/11 05:47:04;;;;;;;5.65;4.45;;;;;;;;;;6100982;23;20468;-72
2023/09/11 05:49:30;;;;;;;6.13;4.38;;;;;;;;;;6136906;23;19997;-72
2023/09/11 05:51:57;;;;;;;6.63;4.05;;;29.70;73.30;;;;;;6135193;23;20089;-72
2023/09/11 05:54:23;;;;;;;5.93;4.07;;;;;;;;;;6135710;23;19994;-71
2023/09/11 05:56:49;;;;;;;6.03;4.53;;;;;;;;;;6135729;23;20006;-72
2023/09/11 05:59:19;;;;;;;4.60;3.92;;;;;;;;;;6135749;23;19998;-72
2023/09/11 06:01:48;;;;;;;9.60;4.93;;;29.60;68.20;;;;;;6135967;23;20017;-72
2023/09/11 06:04:15;;;;;;;7.75;4.43;;;;;;;;;;6135781;23;20068;-72
2023/09/11 06:06:41;;;;;;;9.52;4.40;;;;;;;;;;6135696;23;19994;-72
2023/09/11 06:09:08;;;;;;;11.30;4.97;;;;;;;;;;6125992;23;20052;-72
2023/09/11 06:11:37;;;;;;;6.78;4.22;;;29.70;68.90;;;;;;6135559;23;20017;-72
2023/09/11 06:14:04;;;;;;;7.45;4.50;;;29.60;73.90;;;;;;6135502;23;20001;-72
2023/09/11 06:16:30;;;;;;;7.82;4.32;;;;;;;;;;6135681;23;20048;-72
2023/09/11 06:18:57;;;;;;;7.20;4.50;;;29.50;74.30;;;;;;6135487;23;20005;-71
2023/09/11 06:21:23;;;;;;;8.05;4.85;;;;;;;;;;6135409;23;20006;-71
2023/09/11 06:23:49;;;;;;;5.65;3.88;;;;;;;;;;6135343;23;19994;-72
2023/09/11 06:26:15;;;;;;;7.03;4.50;;;;;;;;;;6135352;23;20006;-71
2023/09/11 06:28:42;;;;;;;6.78;4.30;;;;;;;;;;6135762;23;20068;-72
2023/09/11 06:31:08;;;;;;;8.95;4.30;;;;;;;;;;6134858;23;20005;-72
2023/09/11 06:33:35;;;;;;;5.97;4.20;;;;;;;;;;6125090;23;20002;-72
2023/09/11 06:36:02;;;;;;;5.72;4.13;;;;;;;;;;6125829;23;20017;-72
2023/09/11 06:38:29;;;;;;;8.15;4.60;;;;;;;;;;6125375;23;20388;-72
2023/09/11 06:40:55;;;;;;;6.50;4.20;;;;;;;;;;6125101;23;20433;-72
2023/09/11 06:43:22;;;;;;;9.27;4.38;;;;;;;;;;6125671;23;20032;-72
2023/09/11 06:45:52;;;;;;;8.32;4.50;;;;;;;;;;6125772;23;20065;-72
2023/09/11 06:48:19;;;;;;;5.15;3.95;;;;;;;;;;6099971;23;20004;-73
2023/09/11 06:50:45;;;;;;;9.07;4.60;;;;;;;;;;6125603;23;20342;-73
2023/09/11 06:53:13;;;;;;;7.35;4.38;;;;;;;;;;6125643;23;20074;-73
2023/09/11 06:55:46;;;;;;;6.15;3.97;;;29.50;70.10;;;;;;6125314;23;20429;-73
2023/09/11 06:58:13;;;;;;;7.20;4.75;;;;;;;;;;6100309;23;20002;-72
2023/09/11 07:00:39;;;;;;;8.00;3.92;;;;;;;;;;6125654;23;20049;-72
2023/09/11 07:03:06;;;;;;;6.57;4.40;;;;;;;;;;6124889;23;20013;-73
2023/09/11 07:05:33;;;;;;;8.35;4.85;;;;;;;;;;6125211;23;20447;-73
2023/09/11 07:07:59;;;;;;;8.68;4.50;;;;;;;;;;6125374;23;20081;-72
2023/09/11 07:10:25;;;;;;;7.93;4.47;;;;;;;;;;6125635;23;20355;-72
2023/09/11 07:12:52;;;;;;;8.40;4.30;;;;;;;;;;6125318;23;20080;-72
2023/09/11 07:15:18;;;;;;;9.32;5.03;;;;;;;;;;6134960;23;20027;-72
2023/09/11 07:17:45;;;;;;;9.40;4.53;;;;;;;;;;6135015;23;19997;-72
2023/09/11 07:20:14;;;;;;;8.65;4.35;;;29.40;73.40;;;;;;6134804;23;20002;-73
2023/09/11 07:22:40;;;;;;;11.37;5.03;;;;;;;;;;6135012;23;19994;-73
2023/09/11 07:25:11;;;;;;;7.55;4.65;;;;;;;;;;6134829;23;20449;-73
2023/09/11 07:27:37;;;;;;;6.38;4.28;;;;;;;;;;6134897;23;19998;-76
2023/09/11 07:30:04;;;;;;;8.00;4.53;;;;;;;;;;6098834;23;20449;-76
2023/09/11 07:32:30;;;;;;;7.85;4.63;;;;;;;;;;6125032;23;20010;-75
2023/09/11 07:34:57;;;;;;;8.65;4.28;;;;;;;;;;6098751;23;20002;-75
2023/09/11 07:37:23;;;;;;;6.32;4.65;;;;;;;;;;6134532;23;20002;-76
2023/09/11 07:39:49;;;;;;;7.97;4.63;;;;;;;;;;6134477;23;19998;-75
2023/09/11 07:42:15;;;;;;;5.72;4.05;;;;;;;;;;6134479;23;20420;-75
2023/09/11 07:44:43;;;;;;;6.20;4.18;;;29.50;70.20;;;;;;6134648;23;20033;-75
2023/09/11 07:47:09;;;;;;;9.15;4.47;;;;;;;;;;6134416;23;20005;-74
2023/09/11 07:49:35;;;;;;;5.07;4.07;;;;;;;;;;6124710;23;20005;-73
2023/09/11 07:52:02;;;;;;;6.15;4.18;;;;;;;;;;6124901;23;20010;-72
2023/09/11 07:54:28;;;;;;;6.93;3.97;;;;;;;;;;6134408;23;20073;-72
2023/09/11 07:56:54;;;;;;;5.22;3.97;;;;;;;;;;6134524;23;20336;-72
2023/09/11 07:59:20;;;;;;;7.80;4.43;;;;;;;;;;6134290;23;20437;-73
2023/09/11 08:01:46;;;;;;;8.70;4.13;;;;;;;;;;6134158;23;20024;-73
2023/09/11 08:04:12;;;;;;;5.93;4.28;;;;;;;;;;6134281;23;20002;-73
2023/09/11 08:06:38;;;;;;;5.10;3.75;;;;;;;;;;6133887;23;20002;-74
2023/09/11 08:09:04;;;;;;;7.55;4.20;;;;;;;;;;6134100;23;20022;-74
2023/09/11 08:11:31;;;;;;;5.50;4.10;;;29.50;67.50;;;;;;6134228;23;20016;-72
2023/09/11 08:13:57;;;;;;;5.15;3.85;;;;;;;;;;6134036;23;19998;-73
2023/09/11 08:16:24;;;;;;;6.72;4.28;;;;;;;;;;6134258;23;20002;-72
2023/09/11 08:18:50;;;;;;;5.50;4.13;;;;;;;;;;6098566;23;20436;-73
2023/09/11 08:21:17;;;;;;;8.75;4.13;;;;;;;;;;6134277;23;20001;-73
2023/09/11 08:23:44;;;;;;;7.35;4.40;;;;;;;;;;6124875;23;20072;-75
2023/09/11 08:26:10;;;;;;;7.68;4.20;;;;;;;;;;6124431;23;20013;-75
2023/09/11 08:28:37;;;;;;;7.13;4.25;;;;;;;;;;6124707;23;20012;-75
2023/09/11 08:31:04;;;;;;;6.40;3.55;;;;;;;;;;6124780;23;20009;-76
2023/09/11 08:33:30;;;;;;;8.98;4.40;;;;;;;;;;6124344;23;20129;-76
2023/09/11 08:35:57;;;;;;;6.47;4.25;;;;;;;;;;6124728;23;20013;-76
2023/09/11 08:38:24;;;;;;;8.35;4.20;;;29.60;70.70;;;;;;6124685;23;20002;-76
2023/09/11 08:40:51;;;;;;;4.43;3.70;;;;;;;;;;6124399;23;20005;-72
2023/09/11 08:43:17;;;;;;;7.25;3.33;;;;;;;;;;6124828;23;20002;-72
2023/09/11 08:45:44;;;;;;;6.68;4.07;;;;;;;;;;6124329;23;20425;-72
2023/09/11 08:48:13;;;;;;;4.43;3.60;;;30.00;71.40;;;;;;6124307;23;19994;-72
2023/09/11 08:50:48;;;;;;;6.13;3.93;;;29.70;70.90;;;;;;6134163;23;20001;-73
2023/09/11 08:53:21;;;;;;;6.40;3.60;;;29.70;70.80;;;;;;6134243;23;20378;-74
2023/09/11 08:55:47;;;;;;;3.63;3.28;;;;;;;;;;6134157;23;20096;-73
2023/09/11 08:58:15;;;;;;;5.50;3.28;;;29.70;71.00;;;;;;6134184;23;20010;-74
2023/09/11 09:00:41;;;;;;;4.57;3.50;;;29.80;67.60;;;;;;6134171;23;19998;-73
2023/09/11 09:03:07;;;;;;;4.85;3.13;;;;;;;;;;6134019;23;20029;-75
2023/09/11 09:05:34;;;;;;;4.30;3.45;;;;;;;;;;6134501;23;20002;-75
2023/09/11 09:08:02;;;;;;;3.97;3.13;;;29.90;70.90;;;;;;6134155;23;19998;-73
2023/09/11 09:10:28;;;;;;;4.78;3.40;;;;;;;;;;6134057;23;19998;-73
2023/09/11 09:12:55;;;;;;;5.93;4.15;;;;;;;;;;6133817;23;20006;-73
2023/09/11 09:15:21;;;;;;;4.65;3.28;;;29.90;70.10;;;;;;6098323;23;20512;-73
2023/09/11 09:17:48;;;;;;;8.23;3.22;;;29.80;70.70;;;;;;6124557;23;20010;-75
2023/09/11 09:20:15;;;;;;;5.95;3.17;;;;;;;;;;6098384;23;20008;-73
2023/09/11 09:22:52;;;;;;;4.75;2.78;;;30.00;62.80;;;;;;6124277;23;20449;-73
2023/09/11 09:25:19;;;;;;;4.22;3.40;;;;;;;;;;6134913;23;20001;-72
2023/09/11 09:27:45;;;;;;;4.32;3.15;;;;;;;;;;6135795;23;20005;-72
2023/09/11 09:30:21;;;;;;;4.85;3.10;;;30.10;62.70;;;;;;6135795;23;19997;-72
2023/09/11 09:32:49;;;;;;;5.90;3.05;;;30.20;68.20;;;;;;6125776;23;20076;-73
2023/09/11 09:35:36;;;;;;;6.00;3.65;;;30.20;68.70;;;;;;6126430;23;19998;-73
2023/09/11 09:38:02;;;;;;;3.40;3.10;;;;;;;;;;6125909;23;19998;-73
2023/09/11 09:40:37;;;;;;;6.85;3.35;;;30.40;62.90;;;;;;6125816;23;20077;-73
2023/09/11 09:43:05;;;;;;;7.15;3.40;;;30.30;68.50;;;;;;6126164;23;20325;-72
2023/09/11 09:45:33;;;;;;;3.95;2.92;;;30.00;68.30;;;;;;6135624;23;20001;-73
2023/09/11 09:48:14;;;;;;;5.30;3.20;;;30.40;62.60;;;;;;6135741;23;20001;-72
2023/09/11 09:50:57;;;;;;;4.95;3.17;;;30.50;62.90;;;;;;6135807;23;19998;-72
2023/09/11 09:53:34;;;;;;;5.07;3.13;;;30.50;62.70;;;;;;6126277;23;20073;-71
2023/09/11 09:56:03;;;;;;;4.60;2.78;;;;;;;;;;6136077;23;19998;-77
2023/09/11 09:58:30;;;;;;;5.93;3.47;;;;;;;;;;6135705;23;20426;-76
2023/09/11 10:01:17;;;;;;;5.90;3.15;;;30.60;62.30;;;;;;6135492;23;20002;-75
2023/09/11 10:03:52;;;;;;;4.97;2.80;;;30.80;62.30;;;;;;6135401;23;20073;-75
2023/09/11 10:06:23;;;;;;;4.10;2.85;;;29.50;61.30;;;;;;6135699;23;20009;-76
2023/09/11 10:09:26;;;;;;;5.40;2.75;;;30.80;62.30;;;;;;6135615;23;20061;-76
2023/09/11 10:11:52;;;;;;;7.97;3.28;;;;;;;;;;5988808;24;20072;-76
2023/09/11 10:14:19;;;;;;;3.28;2.60;;;31.30;68.40;;;;;;5989368;24;20008;-76
2023/09/11 10:16:46;;;;;;;6.50;3.47;;;31.00;67.30;;;;;;6058343;23;20006;-76
2023/09/11 10:19:12;;;;;;;5.88;3.20;;;;;;;;;;6125761;23;20009;-76
2023/09/11 10:21:39;;;;;;;5.45;3.15;;;31.10;67.60;;;;;;6135416;23;19994;-76
2023/09/11 10:24:05;;;;;;;6.57;2.72;;;;;;;;;;6135325;23;20025;-75
2023/09/11 10:27:01;;;;;;;5.65;3.00;;;31.20;61.70;;;;;;6126040;23;20303;-75
2023/09/11 10:30:03;;;;;;;5.57;2.97;;;31.30;67.50;;;;;;6105223;23;20006;-75
2023/09/11 10:32:37;;;;;;;6.03;3.20;;;31.40;67.10;;;;;;6128815;23;20025;-73
2023/09/11 10:35:05;;;;;;;6.43;3.33;;;31.40;67.40;;;;;;6125307;23;20497;-73
2023/09/11 10:37:32;;;;;;;2.80;2.55;;;;;;;;;;6124841;23;19998;-72
2023/09/11 10:39:59;;;;;;;5.22;3.05;;;31.50;67.00;;;;;;6125074;23;20082;-72
2023/09/11 10:42:26;;;;;;;4.53;2.80;;;;;;;;;;6125152;23;20442;-72
2023/09/11 10:44:56;;;;;;;4.10;2.90;;;31.60;61.30;;;;;;6125148;23;20386;-72
2023/09/11 10:47:25;;;;;;;6.97;3.03;;;;;;;;;;6125621;23;20013;-72
2023/09/11 10:49:51;;;;;;;5.75;3.00;;;;;;;;;;6125663;23;19998;-75
2023/09/11 10:52:18;;;;;;;4.50;2.72;;;;;;;;;;6125859;23;20333;-74
2023/09/11 10:54:45;;;;;;;4.85;2.97;;;31.80;66.60;;;;;;6125698;23;20315;-75
2023/09/11 10:57:12;;;;;;;5.28;2.85;;;31.90;66.50;;;;;;6125293;23;20386;-74
2023/09/11 10:59:39;;;;;;;4.30;2.67;;;;;;;;;;6125756;23;19998;-75
2023/09/11 11:02:05;;;;;;;5.10;2.85;;;;;;;;;;6125107;23;20018;-75
2023/09/11 11:04:32;;;;;;;3.65;2.70;;;;;;;;;;6125484;23;19998;-75
2023/09/11 11:06:59;;;;;;;4.68;2.92;;;32.10;65.60;;;;;;6135115;23;20002;-75
2023/09/11 11:09:33;;;;;;;6.97;2.65;;;32.10;59.70;;;;;;6135069;23;19998;-75
2023/09/11 11:11:58;;;;;;;4.70;2.70;;;;;;;;;;6135071;23;20010;-75
2023/09/11 11:14:25;;;;;;;4.45;2.63;;;;;;;;;;6134945;23;20033;-75
2023/09/11 11:16:56;;;;;;;3.17;2.80;;;32.10;59.20;;;;;;6135084;23;20005;-75
2023/09/11 11:19:32;;;;;;;3.15;2.67;;;32.20;59.30;;;;;;6099628;23;20025;-74
2023/09/11 11:22:04;;;;;;;2.42;2.22;;;32.40;59.50;;;;;;6099868;23;20238;-75
2023/09/11 11:24:34;;;;;;;3.80;2.45;;;32.50;64.80;;;;;;6099506;23;19998;-74
2023/09/11 11:27:01;;;;;;;3.90;3.03;;;32.40;64.50;;;;;;6125238;23;20038;-75
2023/09/11 11:29:27;;;;;;;4.43;3.30;;;;;;;;;;6134752;23;20002;-75
2023/09/11 11:31:56;;;;;;;3.83;2.38;;;32.60;64.50;;;;;;6134637;23;20010;-75
2023/09/11 11:34:25;;;;;;;3.80;2.92;;;32.60;64.60;;;;;;6134704;23;19995;-75
2023/09/11 11:36:54;;;;;;;4.75;2.50;;;;;;;;;;6134743;23;19997;-75
2023/09/11 11:39:22;;;;;;;3.75;2.60;;;32.80;64.60;;;;;;6134517;23;20322;-75
2023/09/11 11:41:48;;;;;;;2.85;2.55;;;;;;;;;;6134830;23;20042;-74
2023/09/11 11:44:15;;;;;;;3.85;3.00;;;;;;;;;;6100096;23;20061;-75
2023/09/11 11:46:41;;;;;;;3.30;2.50;;;;;;;;;;6125347;23;20006;-74
2023/09/11 11:49:08;;;;;;;3.85;2.80;;;32.80;62.80;;;;;;6124648;23;20002;-75
2023/09/11 11:51:35;;;;;;;3.05;2.60;;;;;;;;;;6124659;23;20057;-75
2023/09/11 11:54:04;;;;;;;3.90;2.88;;;;;;;;;;6125021;23;20002;-76
2023/09/11 11:56:30;;;;;;;4.37;2.73;;;;;;;;;;6125109;23;20337;-75
2023/09/11 11:58:58;;;;;;;4.45;3.10;;;;;;;;;;6125005;23;20053;-76
2023/09/11 12:01:24;;;;;;;4.00;3.03;;;;;;;;;;6124691;23;20006;-76
2023/09/11 12:03:51;;;;;;;3.22;2.70;;;32.90;63.80;;;;;;6134606;23;20460;-73
2023/09/11 12:06:20;;;;;;;2.95;2.33;;;32.80;64.20;;;;;;6124446;23;19994;-73
2023/09/11 12:08:47;;;;;;;3.47;2.70;;;;;;;;;;6124903;23;20085;-73
2023/09/11 12:11:13;;;;;;;3.35;2.70;;;;;;;;;;6134239;23;20017;-74
2023/09/11 12:13:39;;;;;;;4.88;3.20;;;;;;;;;;6134268;23;20428;-73
2023/09/11 12:16:05;;;;;;;4.90;3.08;;;35.30;64.00;;;;;;6134379;23;20004;-73
2023/09/11 12:18:35;;;;;;;4.03;2.85;;;;;;;;;;6134316;23;20406;-73
2023/09/11 12:21:06;;;;;;;6.80;3.38;;;33.20;63.30;;;;;;6125022;23;20009;-73
2023/09/11 12:23:33;;;;;;;4.28;3.13;;;;;;;;;;6124473;23;20001;-72
2023/09/11 12:26:03;;;;;;;3.15;2.72;;;33.20;63.20;;;;;;6134236;23;20035;-73
2023/09/11 12:28:29;;;;;;;4.80;3.22;;;;;;;;;;6134212;23;20380;-73
2023/09/11 12:30:55;;;;;;;3.97;3.00;;;;;;;;;;6134242;23;20418;-73
2023/09/11 12:33:33;;;;;;;4.60;3.28;;;33.30;57.60;;;;;;6134116;23;20006;-75
2023/09/11 12:35:59;;;;;;;5.13;3.30;;;;;;;;;;6134261;23;20005;-76
2023/09/11 12:38:26;;;;;;;4.32;2.90;;;33.30;61.30;;;;;;6098336;23;20322;-75
2023/09/11 12:40:52;;;;;;;5.60;3.20;;;;;;;;;;6134664;23;20001;-75
2023/09/11 12:43:19;;;;;;;4.47;3.58;;;33.50;60.40;;;;;;6134204;23;20010;-75
2023/09/11 12:45:45;;;;;;;4.50;3.35;;;;;;;;;;6134063;23;19995;-74
2023/09/11 12:48:12;;;;;;;6.90;3.13;;;;;;;;;;6133991;23;20068;-74
2023/09/11 12:50:41;;;;;;;5.45;3.63;;;33.40;57.30;;;;;;6134154;23;20005;-74
2023/09/11 12:53:07;;;;;;;4.97;3.50;;;;;;;;;;6133992;23;20041;-73
2023/09/11 12:55:34;;;;;;;3.35;3.05;;;;;;;;;;6124544;23;20333;-75
2023/09/11 12:58:01;;;;;;;5.10;3.25;;;33.50;62.40;;;;;;6124305;23;20013;-75
2023/09/11 13:00:33;;;;;;;4.43;3.95;;;33.50;57.20;;;;;;6125448;23;19994;-75
2023/09/11 13:02:59;;;;;;;5.15;3.60;;;;;;;;;;6126272;23;20006;-75
2023/09/11 13:05:26;;;;;;;5.22;3.60;;;;;;;;;;6126102;23;20061;-75
2023/09/11 13:07:53;;;;;;;6.45;3.75;;;;;;;;;;6126088;23;19998;-74
2023/09/11 13:10:20;;;;;;;6.25;3.58;;;;;;;;;;6126563;23;20021;-74
2023/09/11 13:12:50;;;;;;;4.82;3.45;;;;;;;;;;6126329;23;20021;-74
2023/09/11 13:15:18;;;;;;;5.43;3.67;;;;;;;;;;6126284;23;20076;-75
2023/09/11 13:17:45;;;;;;;7.13;4.00;;;;;;;;;;6126456;23;20052;-75
2023/09/11 13:20:11;;;;;;;5.85;4.30;;;;;;;;;;6135794;23;20518;-75
2023/09/11 13:22:37;;;;;;;6.15;3.88;;;;;;;;;;6135781;23;20005;-75
2023/09/11 13:25:04;;;;;;;4.85;4.35;;;;;;;;;;6126370;23;20324;-75
2023/09/11 13:27:30;;;;;;;5.72;4.28;;;;;;;;;;6126081;23;20002;-74
2023/09/11 13:29:56;;;;;;;6.20;4.55;;;;;;;;;;6135955;23;20069;-74
2023/09/11 13:32:22;;;;;;;6.03;4.18;;;;;;;;;;6126256;23;20333;-74
2023/09/11 13:34:49;;;;;;;4.65;3.95;;;;;;;;;;6125842;23;20006;-74
2023/09/11 13:37:15;;;;;;;6.82;4.03;;;;;;;;;;6125854;23;20144;-74
2023/09/11 13:39:42;;;;;;;6.68;4.70;;;;;;;;;;6126031;23;20124;-75
2023/09/11 13:42:09;;;;;;;5.97;4.80;;;;;;;;;;6125794;23;20504;-76
2023/09/11 13:44:35;;;;;;;9.68;4.90;;;;;;;;;;6125872;23;20002;-75
2023/09/11 13:47:02;;;;;;;7.07;4.75;;;;;;;;;;6125715;23;20464;-75
2023/09/11 13:49:28;;;;;;;6.95;4.70;;;;;;;;;;6135466;23;19998;-74
2023/09/11 13:51:54;;;;;;;8.55;4.43;;;;;;;;;;6135336;23;20521;-75
2023/09/11 13:54:21;;;;;;;6.25;5.03;;;34.10;55.50;;;;;;6135601;23;20021;-75
2023/09/11 13:56:47;;;;;;;5.70;4.32;;;;;;;;;;6135389;23;20434;-76
2023/09/11 13:59:13;;;;;;;6.55;4.50;;;;;;;;;;6135661;23;20004;-75
2023/09/11 14:01:39;;;;;;;5.22;4.40;;;;;;;;;;6135256;23;20041;-75
2023/09/11 14:04:06;;;;;;;7.28;5.45;;;;;;;;;;6126060;23;20002;-74
2023/09/11 14:06:32;;;;;;;7.47;5.30;;;;;;;;;;6135500;23;20069;-74
2023/09/11 14:08:58;;;;;;;7.53;5.25;;;;;;;;;;6125532;23;20006;-74
2023/09/11 14:11:25;;;;;;;7.45;5.38;;;;;;;;;;6125247;23;20315;-74
2023/09/11 14:13:51;;;;;;;8.40;5.03;;;;;;;;;;6135148;23;20064;-74
2023/09/11 14:16:17;;;;;;;7.22;4.75;;;;;;;;;;6125425;23;20006;-74